sensor_id;sensor_type;location;lat;lon;timestamp;P1;durP1;ratioP1;P2;durP2;ratioP2
8466;SDS011;4270;48.148;11.648;2023-01-19T00:00:04;15.30;;;7.60;;
8466;SDS011;4270;48.148;11.648;2023-01-19T00:02:30;15.63;;;8.20;;
8466;SDS011;4270;48.148;11.648;2023-01-19T00:04:55;15.60;;;8.97;;
8466;SDS011;4270;48.148;11.648;2023-01-19T00:07:21;11.80;;;7.37;;
8466;SDS011;4270;48.148;11.648;2023-01-19T00:09:46;12.17;;;7.73;;
8466;SDS011;4270;48.148;11.648;2023-01-19T00:12:11;12.87;;;8.50;;
8466;SDS011;4270;48.148;11.648;2023-01-19T00:14:36;14.10;;;8.23;;
8466;SDS011;4270;48.148;11.648;2023-01-19T00:17:01;17.53;;;8.83;;
8466;SDS011;4270;48.148;11.648;2023-01-19T00:19:27;12.80;;;7.57;;
8466;SDS011;4270;48.148;11.648;2023-01-19T00:21:52;12.47;;;8.17;;
8466;SDS011;4270;48.148;11.648;2023-01-19T00:24:18;11.53;;;7.83;;
8466;SDS011;4270;48.148;11.648;2023-01-19T00:26:43;16.10;;;9.30;;
8466;SDS011;4270;48.148;11.648;2023-01-19T00:29:12;13.10;;;8.57;;
8466;SDS011;4270;48.148;11.648;2023-01-19T00:31:37;12.90;;;8.20;;
8466;SDS011;4270;48.148;11.648;2023-01-19T00:34:03;14.30;;;7.90;;
8466;SDS011;4270;48.148;11.648;2023-01-19T00:36:28;16.67;;;9.20;;
8466;SDS011;4270;48.148;11.648;2023-01-19T00:38:53;11.27;;;7.43;;
8466;SDS011;4270;48.148;11.648;2023-01-19T00:41:19;12.53;;;7.60;;
8466;SDS011;4270;48.148;11.648;2023-01-19T00:44:04;13.60;;;7.33;;
8466;SDS011;4270;48.148;11.648;2023-01-19T00:46:29;12.40;;;6.73;;
8466;SDS011;4270;48.148;11.648;2023-01-19T00:48:54;10.97;;;6.50;;
8466;SDS011;4270;48.148;11.648;2023-01-19T00:51:19;11.43;;;6.50;;
8466;SDS011;4270;48.148;11.648;2023-01-19T00:53:45;11.77;;;7.00;;
8466;SDS011;4270;48.148;11.648;2023-01-19T00:56:10;12.00;;;7.40;;
8466;SDS011;4270;48.148;11.648;2023-01-19T00:58:35;14.17;;;7.00;;
8466;SDS011;4270;48.148;11.648;2023-01-19T01:01:00;13.70;;;6.63;;
8466;SDS011;4270;48.148;11.648;2023-01-19T01:03:27;13.37;;;7.17;;
8466;SDS011;4270;48.148;11.648;2023-01-19T01:05:52;14.00;;;8.43;;
8466;SDS011;4270;48.148;11.648;2023-01-19T01:08:17;11.27;;;6.93;;
8466;SDS011;4270;48.148;11.648;2023-01-19T01:10:42;11.30;;;7.20;;
8466;SDS011;4270;48.148;11.648;2023-01-19T01:13:08;11.67;;;7.70;;
8466;SDS011;4270;48.148;11.648;2023-01-19T01:15:33;14.63;;;7.80;;
8466;SDS011;4270;48.148;11.648;2023-01-19T01:17:58;11.90;;;8.30;;
8466;SDS011;4270;48.148;11.648;2023-01-19T01:20:25;16.80;;;8.20;;
8466;SDS011;4270;48.148;11.648;2023-01-19T01:22:52;14.63;;;7.93;;
8466;SDS011;4270;48.148;11.648;2023-01-19T01:25:18;12.60;;;8.50;;
8466;SDS011;4270;48.148;11.648;2023-01-19T01:27:43;11.87;;;7.77;;
8466;SDS011;4270;48.148;11.648;2023-01-19T01:30:09;13.93;;;8.13;;
8466;SDS011;4270;48.148;11.648;2023-01-19T01:32:35;15.53;;;9.00;;
8466;SDS011;4270;48.148;11.648;2023-01-19T01:35:00;15.77;;;8.73;;
8466;SDS011;4270;48.148;11.648;2023-01-19T01:37:25;13.00;;;8.13;;
8466;SDS011;4270;48.148;11.648;2023-01-19T01:39:50;12.90;;;8.10;;
8466;SDS011;4270;48.148;11.648;2023-01-19T01:42:17;11.97;;;7.73;;
8466;SDS011;4270;48.148;11.648;2023-01-19T01:44:43;12.90;;;7.30;;
8466;SDS011;4270;48.148;11.648;2023-01-19T01:47:14;12.20;;;7.43;;
8466;SDS011;4270;48.148;11.648;2023-01-19T01:49:40;11.70;;;6.77;;
8466;SDS011;4270;48.148;11.648;2023-01-19T01:52:05;12.97;;;7.30;;
8466;SDS011;4270;48.148;11.648;2023-01-19T01:54:30;12.77;;;7.50;;
8466;SDS011;4270;48.148;11.648;2023-01-19T01:56:58;12.63;;;6.90;;
8466;SDS011;4270;48.148;11.648;2023-01-19T01:59:25;13.30;;;7.53;;
8466;SDS011;4270;48.148;11.648;2023-01-19T02:01:57;10.90;;;7.17;;
8466;SDS011;4270;48.148;11.648;2023-01-19T02:04:43;13.57;;;7.70;;
8466;SDS011;4270;48.148;11.648;2023-01-19T02:07:11;12.27;;;7.90;;
8466;SDS011;4270;48.148;11.648;2023-01-19T02:09:57;13.50;;;8.17;;
8466;SDS011;4270;48.148;11.648;2023-01-19T02:12:41;16.80;;;8.70;;
8466;SDS011;4270;48.148;11.648;2023-01-19T02:15:25;12.50;;;7.50;;
8466;SDS011;4270;48.148;11.648;2023-01-19T02:17:50;13.07;;;8.13;;
8466;SDS011;4270;48.148;11.648;2023-01-19T02:20:15;11.67;;;7.37;;
8466;SDS011;4270;48.148;11.648;2023-01-19T02:22:44;14.27;;;7.83;;
8466;SDS011;4270;48.148;11.648;2023-01-19T02:25:10;11.60;;;7.67;;
8466;SDS011;4270;48.148;11.648;2023-01-19T02:27:35;17.67;;;7.60;;
8466;SDS011;4270;48.148;11.648;2023-01-19T02:30:01;13.13;;;7.43;;
8466;SDS011;4270;48.148;11.648;2023-01-19T02:32:27;14.37;;;7.57;;
8466;SDS011;4270;48.148;11.648;2023-01-19T02:34:52;13.30;;;7.50;;
8466;SDS011;4270;48.148;11.648;2023-01-19T02:37:18;10.90;;;6.43;;
8466;SDS011;4270;48.148;11.648;2023-01-19T02:39:49;10.60;;;6.50;;
8466;SDS011;4270;48.148;11.648;2023-01-19T02:42:24;10.90;;;6.77;;
8466;SDS011;4270;48.148;11.648;2023-01-19T02:44:51;13.90;;;7.07;;
8466;SDS011;4270;48.148;11.648;2023-01-19T02:47:17;11.57;;;7.07;;
8466;SDS011;4270;48.148;11.648;2023-01-19T02:49:43;14.23;;;6.80;;
8466;SDS011;4270;48.148;11.648;2023-01-19T02:52:15;12.63;;;6.47;;
8466;SDS011;4270;48.148;11.648;2023-01-19T02:54:45;12.57;;;6.63;;
8466;SDS011;4270;48.148;11.648;2023-01-19T03:05:25;7.70;;;5.47;;
8466;SDS011;4270;48.148;11.648;2023-01-19T03:07:56;9.27;;;4.60;;
8466;SDS011;4270;48.148;11.648;2023-01-19T03:12:49;8.60;;;6.23;;
8466;SDS011;4270;48.148;11.648;2023-01-19T03:15:21;6.30;;;4.63;;
8466;SDS011;4270;48.148;11.648;2023-01-19T03:17:48;12.57;;;5.83;;
8466;SDS011;4270;48.148;11.648;2023-01-19T03:20:13;8.80;;;4.80;;
8466;SDS011;4270;48.148;11.648;2023-01-19T03:22:40;9.33;;;4.73;;
8466;SDS011;4270;48.148;11.648;2023-01-19T03:25:06;8.20;;;5.43;;
8466;SDS011;4270;48.148;11.648;2023-01-19T03:27:32;6.07;;;4.40;;
8466;SDS011;4270;48.148;11.648;2023-01-19T03:30:06;6.80;;;4.50;;
8466;SDS011;4270;48.148;11.648;2023-01-19T03:32:33;7.20;;;5.13;;
8466;SDS011;4270;48.148;11.648;2023-01-19T03:35:00;8.57;;;4.50;;
8466;SDS011;4270;48.148;11.648;2023-01-19T03:37:26;8.90;;;5.47;;
8466;SDS011;4270;48.148;11.648;2023-01-19T03:39:53;6.73;;;4.53;;
8466;SDS011;4270;48.148;11.648;2023-01-19T03:42:19;7.50;;;4.70;;
8466;SDS011;4270;48.148;11.648;2023-01-19T03:44:44;8.47;;;5.33;;
8466;SDS011;4270;48.148;11.648;2023-01-19T03:47:10;6.43;;;4.53;;
8466;SDS011;4270;48.148;11.648;2023-01-19T03:49:37;9.30;;;5.60;;
8466;SDS011;4270;48.148;11.648;2023-01-19T03:52:03;8.37;;;4.97;;
8466;SDS011;4270;48.148;11.648;2023-01-19T03:54:28;9.70;;;5.60;;
8466;SDS011;4270;48.148;11.648;2023-01-19T03:56:53;9.03;;;5.90;;
8466;SDS011;4270;48.148;11.648;2023-01-19T03:59:19;8.90;;;5.80;;
8466;SDS011;4270;48.148;11.648;2023-01-19T04:01:45;12.57;;;6.90;;
8466;SDS011;4270;48.148;11.648;2023-01-19T04:04:11;8.30;;;6.13;;
8466;SDS011;4270;48.148;11.648;2023-01-19T04:06:37;11.53;;;7.20;;
8466;SDS011;4270;48.148;11.648;2023-01-19T04:09:02;12.50;;;7.07;;
8466;SDS011;4270;48.148;11.648;2023-01-19T04:11:27;12.50;;;6.93;;
8466;SDS011;4270;48.148;11.648;2023-01-19T04:13:53;12.40;;;7.27;;
8466;SDS011;4270;48.148;11.648;2023-01-19T04:16:18;10.83;;;6.80;;
8466;SDS011;4270;48.148;11.648;2023-01-19T04:18:45;11.10;;;7.60;;
8466;SDS011;4270;48.148;11.648;2023-01-19T04:21:10;9.70;;;7.10;;
8466;SDS011;4270;48.148;11.648;2023-01-19T04:23:35;12.40;;;6.77;;
8466;SDS011;4270;48.148;11.648;2023-01-19T04:26:02;11.50;;;6.93;;
8466;SDS011;4270;48.148;11.648;2023-01-19T04:28:28;11.43;;;8.07;;
8466;SDS011;4270;48.148;11.648;2023-01-19T04:30:53;11.07;;;6.90;;
8466;SDS011;4270;48.148;11.648;2023-01-19T04:33:19;11.57;;;7.27;;
8466;SDS011;4270;48.148;11.648;2023-01-19T04:35:45;10.00;;;6.70;;
8466;SDS011;4270;48.148;11.648;2023-01-19T04:38:10;14.80;;;8.20;;
8466;SDS011;4270;48.148;11.648;2023-01-19T04:40:35;12.17;;;7.80;;
8466;SDS011;4270;48.148;11.648;2023-01-19T04:43:00;10.87;;;8.20;;
8466;SDS011;4270;48.148;11.648;2023-01-19T04:45:25;12.70;;;8.13;;
8466;SDS011;4270;48.148;11.648;2023-01-19T04:47:51;13.93;;;8.25;;
8466;SDS011;4270;48.148;11.648;2023-01-19T04:50:16;12.30;;;7.70;;
8466;SDS011;4270;48.148;11.648;2023-01-19T04:52:44;12.03;;;8.40;;
8466;SDS011;4270;48.148;11.648;2023-01-19T04:55:09;11.80;;;7.10;;
8466;SDS011;4270;48.148;11.648;2023-01-19T04:57:34;11.83;;;7.33;;
8466;SDS011;4270;48.148;11.648;2023-01-19T05:00:00;13.40;;;8.40;;
8466;SDS011;4270;48.148;11.648;2023-01-19T05:02:25;12.63;;;7.33;;
8466;SDS011;4270;48.148;11.648;2023-01-19T05:04:50;16.00;;;8.27;;
8466;SDS011;4270;48.148;11.648;2023-01-19T05:07:15;12.83;;;7.90;;
8466;SDS011;4270;48.148;11.648;2023-01-19T05:09:41;10.10;;;7.50;;
8466;SDS011;4270;48.148;11.648;2023-01-19T05:12:06;15.03;;;7.90;;
8466;SDS011;4270;48.148;11.648;2023-01-19T05:14:31;14.30;;;7.57;;
8466;SDS011;4270;48.148;11.648;2023-01-19T05:16:56;10.60;;;7.17;;
8466;SDS011;4270;48.148;11.648;2023-01-19T05:19:22;13.63;;;7.60;;
8466;SDS011;4270;48.148;11.648;2023-01-19T05:21:47;17.33;;;9.87;;
8466;SDS011;4270;48.148;11.648;2023-01-19T05:24:12;13.83;;;7.70;;
8466;SDS011;4270;48.148;11.648;2023-01-19T05:26:38;12.50;;;8.57;;
8466;SDS011;4270;48.148;11.648;2023-01-19T05:29:03;17.13;;;8.90;;
8466;SDS011;4270;48.148;11.648;2023-01-19T05:31:28;14.53;;;7.60;;
8466;SDS011;4270;48.148;11.648;2023-01-19T05:33:54;13.43;;;7.43;;
8466;SDS011;4270;48.148;11.648;2023-01-19T05:36:19;13.77;;;8.90;;
8466;SDS011;4270;48.148;11.648;2023-01-19T05:38:44;14.43;;;8.97;;
8466;SDS011;4270;48.148;11.648;2023-01-19T05:41:09;18.10;;;9.82;;
8466;SDS011;4270;48.148;11.648;2023-01-19T05:43:34;14.83;;;9.03;;
8466;SDS011;4270;48.148;11.648;2023-01-19T05:45:59;13.43;;;9.17;;
8466;SDS011;4270;48.148;11.648;2023-01-19T05:48:25;18.00;;;9.43;;
8466;SDS011;4270;48.148;11.648;2023-01-19T05:50:50;17.27;;;9.60;;
8466;SDS011;4270;48.148;11.648;2023-01-19T05:53:15;12.80;;;8.23;;
8466;SDS011;4270;48.148;11.648;2023-01-19T05:55:41;15.43;;;10.43;;
8466;SDS011;4270;48.148;11.648;2023-01-19T05:58:06;21.60;;;10.10;;
8466;SDS011;4270;48.148;11.648;2023-01-19T06:00:31;17.67;;;10.23;;
8466;SDS011;4270;48.148;11.648;2023-01-19T06:02:56;16.97;;;9.33;;
8466;SDS011;4270;48.148;11.648;2023-01-19T06:05:21;18.13;;;10.37;;
8466;SDS011;4270;48.148;11.648;2023-01-19T06:07:47;19.47;;;12.00;;
8466;SDS011;4270;48.148;11.648;2023-01-19T06:10:12;15.00;;;9.77;;
8466;SDS011;4270;48.148;11.648;2023-01-19T06:12:40;14.67;;;8.90;;
8466;SDS011;4270;48.148;11.648;2023-01-19T06:15:06;16.67;;;11.07;;
8466;SDS011;4270;48.148;11.648;2023-01-19T06:17:31;16.23;;;10.17;;
8466;SDS011;4270;48.148;11.648;2023-01-19T06:19:56;17.97;;;10.13;;
8466;SDS011;4270;48.148;11.648;2023-01-19T06:22:22;20.63;;;11.20;;
8466;SDS011;4270;48.148;11.648;2023-01-19T06:24:47;17.43;;;10.23;;
8466;SDS011;4270;48.148;11.648;2023-01-19T06:27:12;20.23;;;11.93;;
8466;SDS011;4270;48.148;11.648;2023-01-19T06:29:37;19.23;;;9.83;;
8466;SDS011;4270;48.148;11.648;2023-01-19T06:32:03;16.77;;;10.57;;
8466;SDS011;4270;48.148;11.648;2023-01-19T06:34:28;19.90;;;10.97;;
8466;SDS011;4270;48.148;11.648;2023-01-19T06:36:56;21.03;;;11.53;;
8466;SDS011;4270;48.148;11.648;2023-01-19T06:39:22;17.50;;;10.20;;
8466;SDS011;4270;48.148;11.648;2023-01-19T06:41:47;16.90;;;10.70;;
8466;SDS011;4270;48.148;11.648;2023-01-19T06:44:12;18.10;;;11.97;;
8466;SDS011;4270;48.148;11.648;2023-01-19T06:46:37;19.40;;;10.77;;
8466;SDS011;4270;48.148;11.648;2023-01-19T06:49:02;22.57;;;11.97;;
8466;SDS011;4270;48.148;11.648;2023-01-19T06:51:28;15.63;;;10.03;;
8466;SDS011;4270;48.148;11.648;2023-01-19T06:53:53;15.27;;;9.90;;
8466;SDS011;4270;48.148;11.648;2023-01-19T06:56:18;18.20;;;11.07;;
8466;SDS011;4270;48.148;11.648;2023-01-19T06:58:45;18.23;;;11.20;;
8466;SDS011;4270;48.148;11.648;2023-01-19T07:01:10;15.20;;;9.70;;
8466;SDS011;4270;48.148;11.648;2023-01-19T07:03:35;18.83;;;11.50;;
8466;SDS011;4270;48.148;11.648;2023-01-19T07:06:02;14.27;;;9.97;;
8466;SDS011;4270;48.148;11.648;2023-01-19T07:08:28;15.90;;;9.83;;
8466;SDS011;4270;48.148;11.648;2023-01-19T07:11:00;20.23;;;11.43;;
8466;SDS011;4270;48.148;11.648;2023-01-19T07:13:26;17.27;;;10.50;;
8466;SDS011;4270;48.148;11.648;2023-01-19T07:15:52;16.03;;;9.80;;
8466;SDS011;4270;48.148;11.648;2023-01-19T07:18:17;18.77;;;10.90;;
8466;SDS011;4270;48.148;11.648;2023-01-19T07:20:42;17.93;;;10.60;;
8466;SDS011;4270;48.148;11.648;2023-01-19T07:23:09;18.87;;;10.70;;
8466;SDS011;4270;48.148;11.648;2023-01-19T07:25:35;20.57;;;9.80;;
8466;SDS011;4270;48.148;11.648;2023-01-19T07:28:00;14.77;;;9.30;;
8466;SDS011;4270;48.148;11.648;2023-01-19T07:30:26;15.67;;;9.30;;
8466;SDS011;4270;48.148;11.648;2023-01-19T07:32:53;14.37;;;9.27;;
8466;SDS011;4270;48.148;11.648;2023-01-19T07:35:18;12.90;;;9.20;;
8466;SDS011;4270;48.148;11.648;2023-01-19T07:37:43;17.20;;;9.70;;
8466;SDS011;4270;48.148;11.648;2023-01-19T07:40:09;14.93;;;9.20;;
8466;SDS011;4270;48.148;11.648;2023-01-19T07:42:34;14.80;;;8.77;;
8466;SDS011;4270;48.148;11.648;2023-01-19T07:44:59;14.80;;;8.70;;
8466;SDS011;4270;48.148;11.648;2023-01-19T07:47:25;14.03;;;9.00;;
8466;SDS011;4270;48.148;11.648;2023-01-19T07:49:50;15.93;;;9.27;;
8466;SDS011;4270;48.148;11.648;2023-01-19T07:52:16;19.27;;;9.03;;
8466;SDS011;4270;48.148;11.648;2023-01-19T07:54:41;14.83;;;9.27;;
8466;SDS011;4270;48.148;11.648;2023-01-19T07:57:07;16.70;;;9.40;;
8466;SDS011;4270;48.148;11.648;2023-01-19T07:59:32;13.60;;;9.20;;
8466;SDS011;4270;48.148;11.648;2023-01-19T08:01:57;11.30;;;8.20;;
8466;SDS011;4270;48.148;11.648;2023-01-19T08:04:23;12.13;;;8.00;;
8466;SDS011;4270;48.148;11.648;2023-01-19T08:06:48;15.23;;;9.00;;
8466;SDS011;4270;48.148;11.648;2023-01-19T08:09:14;14.93;;;8.97;;
8466;SDS011;4270;48.148;11.648;2023-01-19T08:11:39;12.90;;;8.70;;
8466;SDS011;4270;48.148;11.648;2023-01-19T08:14:04;13.73;;;9.20;;
8466;SDS011;4270;48.148;11.648;2023-01-19T08:16:29;21.67;;;9.50;;
8466;SDS011;4270;48.148;11.648;2023-01-19T08:18:54;15.97;;;8.27;;
8466;SDS011;4270;48.148;11.648;2023-01-19T08:21:20;11.87;;;8.10;;
8466;SDS011;4270;48.148;11.648;2023-01-19T08:23:52;13.77;;;9.30;;
8466;SDS011;4270;48.148;11.648;2023-01-19T08:26:18;10.70;;;8.27;;
8466;SDS011;4270;48.148;11.648;2023-01-19T08:28:44;12.63;;;8.67;;
8466;SDS011;4270;48.148;11.648;2023-01-19T08:31:09;12.37;;;7.97;;
8466;SDS011;4270;48.148;11.648;2023-01-19T08:33:34;15.40;;;8.17;;
8466;SDS011;4270;48.148;11.648;2023-01-19T08:36:00;11.17;;;7.57;;
8466;SDS011;4270;48.148;11.648;2023-01-19T08:38:25;12.83;;;8.20;;
8466;SDS011;4270;48.148;11.648;2023-01-19T08:40:50;14.93;;;7.80;;
8466;SDS011;4270;48.148;11.648;2023-01-19T08:43:16;11.60;;;7.90;;
8466;SDS011;4270;48.148;11.648;2023-01-19T08:45:42;14.67;;;7.43;;
8466;SDS011;4270;48.148;11.648;2023-01-19T08:48:12;13.87;;;7.60;;
8466;SDS011;4270;48.148;11.648;2023-01-19T08:50:37;11.47;;;7.90;;
8466;SDS011;4270;48.148;11.648;2023-01-19T08:53:02;13.47;;;8.67;;
8466;SDS011;4270;48.148;11.648;2023-01-19T08:55:30;10.90;;;7.10;;
8466;SDS011;4270;48.148;11.648;2023-01-19T08:57:55;16.67;;;9.23;;
8466;SDS011;4270;48.148;11.648;2023-01-19T09:00:22;13.60;;;8.60;;
8466;SDS011;4270;48.148;11.648;2023-01-19T09:02:47;11.53;;;8.33;;
8466;SDS011;4270;48.148;11.648;2023-01-19T09:05:12;13.40;;;8.17;;
8466;SDS011;4270;48.148;11.648;2023-01-19T09:07:38;14.60;;;8.00;;
8466;SDS011;4270;48.148;11.648;2023-01-19T09:10:03;14.10;;;7.93;;
8466;SDS011;4270;48.148;11.648;2023-01-19T09:12:29;13.03;;;8.70;;
8466;SDS011;4270;48.148;11.648;2023-01-19T09:14:54;11.43;;;7.77;;
8466;SDS011;4270;48.148;11.648;2023-01-19T09:17:19;14.57;;;8.00;;
8466;SDS011;4270;48.148;11.648;2023-01-19T09:19:44;12.43;;;6.90;;
8466;SDS011;4270;48.148;11.648;2023-01-19T09:22:10;12.30;;;7.17;;
8466;SDS011;4270;48.148;11.648;2023-01-19T09:24:35;11.10;;;7.57;;
8466;SDS011;4270;48.148;11.648;2023-01-19T09:27:00;9.93;;;7.57;;
8466;SDS011;4270;48.148;11.648;2023-01-19T09:29:25;12.17;;;8.90;;
8466;SDS011;4270;48.148;11.648;2023-01-19T09:31:51;11.30;;;7.90;;
8466;SDS011;4270;48.148;11.648;2023-01-19T09:34:16;9.97;;;6.83;;
8466;SDS011;4270;48.148;11.648;2023-01-19T09:36:41;11.10;;;7.17;;
8466;SDS011;4270;48.148;11.648;2023-01-19T09:39:06;13.67;;;7.40;;
8466;SDS011;4270;48.148;11.648;2023-01-19T09:41:32;13.73;;;7.63;;
8466;SDS011;4270;48.148;11.648;2023-01-19T09:43:58;11.03;;;7.53;;
8466;SDS011;4270;48.148;11.648;2023-01-19T09:48:58;12.33;;;8.00;;
8466;SDS011;4270;48.148;11.648;2023-01-19T09:51:31;13.63;;;8.07;;
8466;SDS011;4270;48.148;11.648;2023-01-19T09:56:29;11.03;;;8.20;;
8466;SDS011;4270;48.148;11.648;2023-01-19T09:58:54;12.27;;;7.50;;
8466;SDS011;4270;48.148;11.648;2023-01-19T10:04:06;10.40;;;7.80;;
8466;SDS011;4270;48.148;11.648;2023-01-19T10:06:32;13.53;;;8.03;;
8466;SDS011;4270;48.148;11.648;2023-01-19T10:08:59;11.90;;;8.17;;
8466;SDS011;4270;48.148;11.648;2023-01-19T10:12:11;11.53;;;8.13;;
8466;SDS011;4270;48.148;11.648;2023-01-19T10:14:19;11.73;;;7.60;;
8466;SDS011;4270;48.148;11.648;2023-01-19T10:17:00;12.80;;;6.90;;
8466;SDS011;4270;48.148;11.648;2023-01-19T10:19:29;12.17;;;6.90;;
8466;SDS011;4270;48.148;11.648;2023-01-19T10:21:56;9.37;;;6.60;;
8466;SDS011;4270;48.148;11.648;2023-01-19T10:24:24;9.33;;;6.43;;
8466;SDS011;4270;48.148;11.648;2023-01-19T10:26:54;9.27;;;6.17;;
8466;SDS011;4270;48.148;11.648;2023-01-19T10:29:30;9.63;;;5.93;;
8466;SDS011;4270;48.148;11.648;2023-01-19T10:32:05;11.47;;;6.97;;
8466;SDS011;4270;48.148;11.648;2023-01-19T10:34:31;11.70;;;6.97;;
8466;SDS011;4270;48.148;11.648;2023-01-19T10:37:00;10.53;;;7.27;;
8466;SDS011;4270;48.148;11.648;2023-01-19T10:39:27;10.53;;;6.37;;
8466;SDS011;4270;48.148;11.648;2023-01-19T10:41:52;11.93;;;7.07;;
8466;SDS011;4270;48.148;11.648;2023-01-19T10:44:27;11.63;;;6.93;;
8466;SDS011;4270;48.148;11.648;2023-01-19T10:46:53;10.23;;;6.03;;
8466;SDS011;4270;48.148;11.648;2023-01-19T10:51:55;9.13;;;6.10;;
8466;SDS011;4270;48.148;11.648;2023-01-19T10:54:21;9.90;;;5.83;;
8466;SDS011;4270;48.148;11.648;2023-01-19T10:56:50;9.40;;;5.40;;
8466;SDS011;4270;48.148;11.648;2023-01-19T11:02:12;7.70;;;5.30;;
8466;SDS011;4270;48.148;11.648;2023-01-19T11:04:39;6.20;;;4.63;;
8466;SDS011;4270;48.148;11.648;2023-01-19T11:09:43;10.33;;;4.50;;
8466;SDS011;4270;48.148;11.648;2023-01-19T11:12:21;7.37;;;5.00;;
8466;SDS011;4270;48.148;11.648;2023-01-19T11:14:47;7.00;;;4.87;;
8466;SDS011;4270;48.148;11.648;2023-01-19T11:17:22;7.93;;;5.30;;
8466;SDS011;4270;48.148;11.648;2023-01-19T11:19:58;7.50;;;4.13;;
8466;SDS011;4270;48.148;11.648;2023-01-19T11:22:29;6.83;;;4.20;;
8466;SDS011;4270;48.148;11.648;2023-01-19T11:24:59;5.47;;;4.40;;
8466;SDS011;4270;48.148;11.648;2023-01-19T11:27:25;5.10;;;4.07;;
8466;SDS011;4270;48.148;11.648;2023-01-19T11:30:02;6.73;;;4.70;;
8466;SDS011;4270;48.148;11.648;2023-01-19T11:32:33;7.07;;;4.20;;
8466;SDS011;4270;48.148;11.648;2023-01-19T11:35:01;5.07;;;3.70;;
8466;SDS011;4270;48.148;11.648;2023-01-19T11:37:28;6.13;;;4.13;;
8466;SDS011;4270;48.148;11.648;2023-01-19T11:39:55;9.10;;;4.23;;
8466;SDS011;4270;48.148;11.648;2023-01-19T11:42:20;5.07;;;3.97;;
8466;SDS011;4270;48.148;11.648;2023-01-19T11:47:22;6.63;;;4.60;;
8466;SDS011;4270;48.148;11.648;2023-01-19T11:50:05;6.40;;;4.37;;
8466;SDS011;4270;48.148;11.648;2023-01-19T11:52:39;4.57;;;3.67;;
8466;SDS011;4270;48.148;11.648;2023-01-19T11:57:31;5.60;;;3.80;;
8466;SDS011;4270;48.148;11.648;2023-01-19T11:59:56;7.70;;;3.90;;
8466;SDS011;4270;48.148;11.648;2023-01-19T12:02:28;3.97;;;2.77;;
8466;SDS011;4270;48.148;11.648;2023-01-19T12:04:55;3.37;;;2.30;;
8466;SDS011;4270;48.148;11.648;2023-01-19T12:07:22;4.23;;;2.87;;
8466;SDS011;4270;48.148;11.648;2023-01-19T12:09:50;3.53;;;2.37;;
8466;SDS011;4270;48.148;11.648;2023-01-19T12:12:31;4.23;;;2.10;;
8466;SDS011;4270;48.148;11.648;2023-01-19T12:17:26;3.20;;;2.53;;
8466;SDS011;4270;48.148;11.648;2023-01-19T12:22:39;5.87;;;2.13;;
8466;SDS011;4270;48.148;11.648;2023-01-19T12:25:11;3.37;;;2.53;;
8466;SDS011;4270;48.148;11.648;2023-01-19T12:27:38;4.30;;;2.73;;
8466;SDS011;4270;48.148;11.648;2023-01-19T12:30:04;2.60;;;1.40;;
8466;SDS011;4270;48.148;11.648;2023-01-19T12:32:31;5.40;;;1.13;;
8466;SDS011;4270;48.148;11.648;2023-01-19T12:34:57;1.87;;;1.50;;
8466;SDS011;4270;48.148;11.648;2023-01-19T12:37:38;4.70;;;1.80;;
8466;SDS011;4270;48.148;11.648;2023-01-19T12:42:45;2.60;;;1.60;;
8466;SDS011;4270;48.148;11.648;2023-01-19T12:45:21;2.00;;;1.43;;
8466;SDS011;4270;48.148;11.648;2023-01-19T12:47:49;3.43;;;2.10;;
8466;SDS011;4270;48.148;11.648;2023-01-19T12:50:16;5.60;;;2.73;;
8466;SDS011;4270;48.148;11.648;2023-01-19T12:52:46;3.07;;;2.30;;
8466;SDS011;4270;48.148;11.648;2023-01-19T13:02:45;6.07;;;3.00;;
8466;SDS011;4270;48.148;11.648;2023-01-19T13:13:17;5.43;;;2.70;;
8466;SDS011;4270;48.148;11.648;2023-01-19T13:15:42;6.03;;;2.57;;
8466;SDS011;4270;48.148;11.648;2023-01-19T13:18:08;5.73;;;3.00;;
8466;SDS011;4270;48.148;11.648;2023-01-19T13:20:42;3.87;;;3.03;;
8466;SDS011;4270;48.148;11.648;2023-01-19T13:23:19;4.83;;;3.07;;
8466;SDS011;4270;48.148;11.648;2023-01-19T13:26:05;8.70;;;3.20;;
8466;SDS011;4270;48.148;11.648;2023-01-19T13:28:37;8.67;;;3.50;;
8466;SDS011;4270;48.148;11.648;2023-01-19T13:31:03;8.70;;;3.33;;
8466;SDS011;4270;48.148;11.648;2023-01-19T13:33:31;3.97;;;2.67;;
8466;SDS011;4270;48.148;11.648;2023-01-19T13:35:58;9.00;;;3.70;;
8466;SDS011;4270;48.148;11.648;2023-01-19T13:38:24;7.53;;;3.63;;
8466;SDS011;4270;48.148;11.648;2023-01-19T13:40:50;5.20;;;3.80;;
8466;SDS011;4270;48.148;11.648;2023-01-19T13:43:17;5.23;;;3.80;;
8466;SDS011;4270;48.148;11.648;2023-01-19T13:45:47;4.67;;;3.30;;
8466;SDS011;4270;48.148;11.648;2023-01-19T13:48:15;6.17;;;3.47;;
8466;SDS011;4270;48.148;11.648;2023-01-19T13:50:41;4.27;;;3.53;;
8466;SDS011;4270;48.148;11.648;2023-01-19T13:53:15;7.90;;;4.00;;
8466;SDS011;4270;48.148;11.648;2023-01-19T13:55:40;8.33;;;4.67;;
8466;SDS011;4270;48.148;11.648;2023-01-19T13:58:17;6.53;;;3.60;;
8466;SDS011;4270;48.148;11.648;2023-01-19T14:00:44;6.43;;;2.90;;
8466;SDS011;4270;48.148;11.648;2023-01-19T14:05:38;6.20;;;3.60;;
8466;SDS011;4270;48.148;11.648;2023-01-19T14:10:40;5.60;;;3.70;;
8466;SDS011;4270;48.148;11.648;2023-01-19T14:13:19;5.37;;;3.70;;
8466;SDS011;4270;48.148;11.648;2023-01-19T14:15:45;4.93;;;3.40;;
8466;SDS011;4270;48.148;11.648;2023-01-19T14:18:21;10.43;;;3.73;;
8466;SDS011;4270;48.148;11.648;2023-01-19T14:23:37;6.53;;;3.70;;
8466;SDS011;4270;48.148;11.648;2023-01-19T14:26:03;5.67;;;4.10;;
8466;SDS011;4270;48.148;11.648;2023-01-19T14:31:00;4.83;;;3.50;;
8466;SDS011;4270;48.148;11.648;2023-01-19T14:33:39;5.50;;;3.00;;
8466;SDS011;4270;48.148;11.648;2023-01-19T14:36:08;4.50;;;2.60;;
8466;SDS011;4270;48.148;11.648;2023-01-19T14:38:33;3.40;;;2.70;;
8466;SDS011;4270;48.148;11.648;2023-01-19T14:40:59;5.50;;;3.83;;
8466;SDS011;4270;48.148;11.648;2023-01-19T14:43:24;5.77;;;3.03;;
8466;SDS011;4270;48.148;11.648;2023-01-19T14:45:52;7.40;;;3.70;;
8466;SDS011;4270;48.148;11.648;2023-01-19T14:48:18;4.13;;;3.10;;
8466;SDS011;4270;48.148;11.648;2023-01-19T14:50:45;5.10;;;2.80;;
8466;SDS011;4270;48.148;11.648;2023-01-19T14:53:27;3.47;;;2.97;;
8466;SDS011;4270;48.148;11.648;2023-01-19T14:56:00;5.73;;;2.73;;
8466;SDS011;4270;48.148;11.648;2023-01-19T14:58:28;5.20;;;2.90;;
8466;SDS011;4270;48.148;11.648;2023-01-19T15:00:54;3.33;;;2.40;;
8466;SDS011;4270;48.148;11.648;2023-01-19T15:03:20;5.83;;;3.20;;
8466;SDS011;4270;48.148;11.648;2023-01-19T15:05:45;4.27;;;2.63;;
8466;SDS011;4270;48.148;11.648;2023-01-19T15:08:11;5.77;;;2.60;;
8466;SDS011;4270;48.148;11.648;2023-01-19T15:10:38;4.60;;;2.60;;
8466;SDS011;4270;48.148;11.648;2023-01-19T15:13:03;4.50;;;2.70;;
8466;SDS011;4270;48.148;11.648;2023-01-19T15:15:29;4.60;;;2.43;;
8466;SDS011;4270;48.148;11.648;2023-01-19T15:17:55;6.03;;;2.70;;
8466;SDS011;4270;48.148;11.648;2023-01-19T15:20:21;6.57;;;2.50;;
8466;SDS011;4270;48.148;11.648;2023-01-19T15:22:46;2.93;;;1.90;;
8466;SDS011;4270;48.148;11.648;2023-01-19T15:25:15;3.53;;;2.40;;
8466;SDS011;4270;48.148;11.648;2023-01-19T15:27:41;8.50;;;5.67;;
8466;SDS011;4270;48.148;11.648;2023-01-19T15:30:17;4.70;;;2.60;;
8466;SDS011;4270;48.148;11.648;2023-01-19T15:32:43;5.60;;;3.47;;
8466;SDS011;4270;48.148;11.648;2023-01-19T15:35:19;8.47;;;4.17;;
8466;SDS011;4270;48.148;11.648;2023-01-19T15:37:53;5.43;;;2.17;;
8466;SDS011;4270;48.148;11.648;2023-01-19T15:40:18;3.47;;;2.73;;
8466;SDS011;4270;48.148;11.648;2023-01-19T15:42:44;3.00;;;0.90;;
8466;SDS011;4270;48.148;11.648;2023-01-19T15:47:54;2.30;;;1.10;;
8466;SDS011;4270;48.148;11.648;2023-01-19T15:50:19;6.80;;;1.30;;
8466;SDS011;4270;48.148;11.648;2023-01-19T15:52:44;2.50;;;1.80;;
8466;SDS011;4270;48.148;11.648;2023-01-19T15:55:10;3.50;;;1.90;;
8466;SDS011;4270;48.148;11.648;2023-01-19T15:57:35;2.73;;;1.93;;